Time;durP1;ratioP1;P1;durP2;ratioP2;P2;SDS_P1;SDS_P2;PMS_P1;PMS_P2;Temp;Humidity;BMP_temperature;BMP_pressure;BME280_temperature;BME280_humidity;BME280_pressure;Samples;Min_cycle;Max_cycle;Signal;HPM_P1;HPM_P2
2023/06/16 00:00:43;;;;;;;3.17;2.10;;;;;;;;;;6123221;23;20093;-85
2023/06/16 00:03:09;;;;;;;5.45;2.08;;;;;;;;;;6122389;23;20021;-85
2023/06/16 00:05:35;;;;;;;7.65;2.50;;;;;;;;;;6123763;23;20049;-85
2023/06/16 00:08:03;;;;;;;2.90;2.30;;;;;;;;;;6122987;23;20092;-85
2023/06/16 00:10:29;;;;;;;2.67;2.33;;;;;;;;;;6123641;23;20021;-85
2023/06/16 00:12:55;;;;;;;3.10;2.35;;;;;;;;;;6123453;23;20029;-85
2023/06/16 00:15:21;;;;;;;3.75;2.45;;;;;;;;;;6122170;23;20022;-86
2023/06/16 00:17:49;;;;;;;3.80;2.50;;;;;;;;;;6122709;23;20025;-86
2023/06/16 00:20:19;;;;;;;4.05;2.50;;;;;;;;;;6122853;23;20018;-85
2023/06/16 00:22:47;;;;;;;3.00;2.25;;;;;;;;;;6122982;23;20025;-86
2023/06/16 00:25:14;;;;;;;4.90;2.58;;;;;;;;;;6123016;23;20343;-86
2023/06/16 00:27:40;;;;;;;3.80;2.13;;;;;;;;;;6123425;23;20017;-86
2023/06/16 00:30:06;;;;;;;6.75;2.63;;;;;;;;;;6122430;23;20774;-86
2023/06/16 00:32:32;;;;;;;5.45;2.47;;;;;;;;;;6122065;23;20028;-86
2023/06/16 00:34:58;;;;;;;4.32;2.60;;;;;;;;;;6123216;23;20073;-85
2023/06/16 00:37:24;;;;;;;3.97;2.22;;;;;;;;;;6122741;23;20014;-86
2023/06/16 00:39:50;;;;;;;3.33;2.25;;;;;;;;;;6121008;23;20050;-86
2023/06/16 00:42:16;;;;;;;3.00;2.20;;;;;;;;;;6122712;23;20409;-86
2023/06/16 00:44:42;;;;;;;2.72;2.40;;;;;;;;;;6122207;23;20592;-86
2023/06/16 00:47:08;;;;;;;3.33;2.50;;;;;;;;;;6121134;23;20063;-85
2023/06/16 00:49:36;;;;;;;3.97;2.42;;;;;;;;;;6121081;23;20098;-86
2023/06/16 00:52:03;;;;;;;2.67;1.90;;;;;;;;;;6123016;23;20017;-86
2023/06/16 00:54:29;;;;;;;3.60;2.53;;;;;;;;;;6122751;23;20336;-86
2023/06/16 00:56:55;;;;;;;3.92;2.45;;;;;;;;;;6123008;23;20018;-86
2023/06/16 00:59:24;;;;;;;2.92;2.33;;;;;;;;;;6120956;23;20141;-86
2023/06/16 01:01:50;;;;;;;3.17;2.70;;;;;;;;;;6122316;23;20343;-86
2023/06/16 01:04:17;;;;;;;3.13;2.58;;;;;;;;;;6120353;23;20343;-86
2023/06/16 01:06:49;;;;;;;3.45;2.28;;;;;;;;;;6123303;23;20017;-86
2023/06/16 01:09:22;;;;;;;4.32;2.33;;;;;;;;;;6122665;23;20010;-86
2023/06/16 01:11:51;;;;;;;4.68;2.45;;;;;;;;;;6122943;23;20053;-85
2023/06/16 01:14:36;;;;;;;3.72;2.50;;;;;;;;;;6121405;23;20013;-86
2023/06/16 01:17:05;;;;;;;3.95;2.60;;;;;;;;;;6122772;23;20041;-85
2023/06/16 01:19:39;;;;;;;3.58;2.75;;;;;;;;;;6121096;23;20050;-86
2023/06/16 01:22:08;;;;;;;3.00;2.35;;;;;;;;;;6122312;23;20018;-85
2023/06/16 01:24:35;;;;;;;2.58;2.25;;;;;;;;;;6122783;23;20081;-86
2023/06/16 01:27:02;;;;;;;2.38;2.13;;;;;;;;;;6122120;23;20024;-86
2023/06/16 01:29:29;;;;;;;3.08;2.28;;;;;;;;;;6120925;23;20013;-86
2023/06/16 01:31:57;;;;;;;3.40;2.28;;;;;;;;;;6120856;23;20088;-86
2023/06/16 01:34:24;;;;;;;2.67;2.28;;;;;;;;;;6122137;23;20022;-86
2023/06/16 01:36:50;;;;;;;2.85;2.42;;;;;;;;;;6122142;23;20324;-86
2023/06/16 01:39:17;;;;;;;3.60;2.30;;;;;;;;;;6121898;23;20014;-86
2023/06/16 01:41:44;;;;;;;5.10;2.38;;;;;;;;;;6122056;23;20412;-86
2023/06/16 01:44:10;;;;;;;2.78;2.45;;;;;;;;;;6122089;23;20442;-86
2023/06/16 01:46:36;;;;;;;4.22;2.38;;;;;;;;;;6120982;23;20018;-86
2023/06/16 01:49:03;;;;;;;5.88;2.45;;;;;;;;;;6120626;23;20014;-86
2023/06/16 01:51:29;;;;;;;3.70;2.50;;;;;;;;;;6122062;23;20018;-85
2023/06/16 01:53:56;;;;;;;4.68;2.70;;;;;;;;;;6122070;23;20073;-85
2023/06/16 01:56:22;;;;;;;3.50;2.85;;;;;;;;;;6122112;23;20017;-85
2023/06/16 01:58:48;;;;;;;3.72;2.80;;;;;;;;;;6121362;23;20014;-85
2023/06/16 02:01:19;;;;;;;3.08;2.45;;;;;;;;;;6121200;23;20336;-85
2023/06/16 02:03:46;;;;;;;4.10;3.10;;;;;;;;;;6121298;23;20010;-85
2023/06/16 02:06:18;;;;;;;3.00;2.33;;;;;;;;;;6121715;23;20507;-85
2023/06/16 02:08:46;;;;;;;4.85;3.17;;;;;;;;;;6121984;23;20014;-85
2023/06/16 02:11:12;;;;;;;4.95;3.15;;;;;;;;;;6120117;23;20092;-85
2023/06/16 02:13:38;;;;;;;3.55;2.47;;;;;;;;;;6121420;23;20021;-85
2023/06/16 02:16:05;;;;;;;4.72;2.90;;;;;;;;;;6122532;23;20141;-85
2023/06/16 02:18:32;;;;;;;5.00;2.75;;;;;;;;;;6121777;23;20471;-85
2023/06/16 02:20:59;;;;;;;3.83;2.92;;;;;;;;;;6121081;23;20018;-85
2023/06/16 02:23:25;;;;;;;4.05;2.53;;;;;;;;;;6121298;23;20018;-85
2023/06/16 02:25:51;;;;;;;3.30;2.63;;;;;;;;;;6119692;23;20018;-85
2023/06/16 02:28:18;;;;;;;3.63;3.05;;;;;;;;;;6121598;23;20018;-85
2023/06/16 02:30:44;;;;;;;4.00;3.13;;;;;;;;;;6119972;23;20018;-85
2023/06/16 02:33:12;;;;;;;3.00;2.55;;;;;;;;;;6122267;23;20074;-85
2023/06/16 02:35:38;;;;;;;4.72;2.83;;;;;;;;;;6120083;23;20021;-86
2023/06/16 02:38:04;;;;;;;4.35;2.60;;;;;;;;;;6119799;23;20014;-85
2023/06/16 02:40:30;;;;;;;4.20;2.80;;;;;;;;;;6119450;23;20021;-85
2023/06/16 02:42:56;;;;;;;4.25;2.70;;;;;;;;;;6121867;23;20418;-86
2023/06/16 02:45:22;;;;;;;3.08;2.50;;;;;;;;;;6121698;23;20422;-84
2023/06/16 02:47:48;;;;;;;5.88;2.80;;;;;;;;;;6121417;23;20014;-85
2023/06/16 02:50:14;;;;;;;3.83;2.80;;;;;;;;;;6121414;23;20010;-85
2023/06/16 02:52:41;;;;;;;3.65;2.42;;;;;;;;;;6119999;23;20026;-85
2023/06/16 02:55:08;;;;;;;4.00;3.13;;;;;;;;;;6120641;23;20380;-85
2023/06/16 02:57:34;;;;;;;3.05;2.72;;;;;;;;;;6122131;23;20077;-86
2023/06/16 03:00:00;;;;;;;6.10;3.17;;;;;;;;;;6121255;23;20018;-85
2023/06/16 03:02:26;;;;;;;4.97;3.13;;;;;;;;;;6121345;23;20018;-85
2023/06/16 03:04:52;;;;;;;3.63;3.10;;;;;;;;;;6122016;23;20017;-85
2023/06/16 03:07:19;;;;;;;3.08;2.55;;;;;;;;;;6119640;23;20025;-86
2023/06/16 03:09:45;;;;;;;3.95;2.83;;;;;;;;;;6121007;23;20014;-88
2023/06/16 03:12:12;;;;;;;3.80;2.53;;;;;;;;;;6121980;23;20018;-86
2023/06/16 03:14:38;;;;;;;3.78;2.90;;;;;;;;;;6121615;23;20018;-85
2023/06/16 03:17:04;;;;;;;3.67;2.55;;;;;;;;;;6121745;23;20018;-85
2023/06/16 03:19:30;;;;;;;4.78;2.75;;;;;;;;;;6121207;23;20074;-85
2023/06/16 03:21:56;;;;;;;4.15;2.58;;;;;;;;;;6121421;23;20018;-85
2023/06/16 03:24:22;;;;;;;3.65;2.13;;;;;;;;;;6118810;23;20515;-86
2023/06/16 03:26:48;;;;;;;4.82;2.60;;;;;;;;;;6123278;23;20093;-86
2023/06/16 03:29:14;;;;;;;4.57;2.75;;;;;;;;;;6121887;23;20020;-86
2023/06/16 03:31:40;;;;;;;3.25;2.95;;;;;;;;;;6121807;23;20018;-86
2023/06/16 03:34:06;;;;;;;2.80;2.60;;;;;;;;;;6123386;23;20339;-85
2023/06/16 03:36:36;;;;;;;3.97;2.88;;;;;;;;;;6121850;23;20029;-86
2023/06/16 03:39:03;;;;;;;5.55;2.80;;;;;;;;;;6122369;23;20052;-86
2023/06/16 03:41:29;;;;;;;3.20;2.60;;;;;;;;;;6123644;23;20014;-86
2023/06/16 03:43:55;;;;;;;2.60;2.33;;;;;;;;;;6122975;23;20017;-86
2023/06/16 03:46:21;;;;;;;3.28;2.35;;;;;;;;;;6120700;23;20084;-86
2023/06/16 03:48:47;;;;;;;6.15;2.78;;;;;;;;;;6123747;23;20038;-86
2023/06/16 03:51:13;;;;;;;5.00;3.30;;;;;;;;;;6123151;23;20482;-86
2023/06/16 03:53:39;;;;;;;4.07;3.28;;;;;;;;;;6121124;23;20022;-86
2023/06/16 03:56:05;;;;;;;4.63;3.35;;;;;;;;;;6123448;23;20085;-86
2023/06/16 03:58:31;;;;;;;5.93;3.70;;;;;;;;;;6123548;23;20021;-85
2023/06/16 04:00:57;;;;;;;4.20;3.47;;;;;;;;;;6121106;23;20108;-86
2023/06/16 04:03:25;;;;;;;4.05;3.65;;;;;;;;;;6121510;23;20502;-86
2023/06/16 04:05:52;;;;;;;5.05;3.22;;;;;;;;;;6122878;23;20014;-86
2023/06/16 04:08:18;;;;;;;5.22;3.90;;;;;;;;;;6122693;23;20049;-86
2023/06/16 04:10:44;;;;;;;5.25;4.75;;;;;;;;;;6123361;23;20381;-85
2023/06/16 04:13:10;;;;;;;6.03;4.20;;;;;;;;;;6122911;23;20018;-86
2023/06/16 04:15:36;;;;;;;6.60;3.88;;;;;;;;;;6123659;23;20018;-85
2023/06/16 04:18:03;;;;;;;4.95;3.70;;;;;;;;;;6120876;23;20018;-86
2023/06/16 04:20:29;;;;;;;7.78;5.05;;;;;;;;;;6123205;23;20021;-86
2023/06/16 04:22:55;;;;;;;7.00;4.72;;;;;;;;;;6121185;23;20097;-86
2023/06/16 04:25:22;;;;;;;7.97;5.00;;;;;;;;;;6123150;23;20018;-85
2023/06/16 04:27:51;;;;;;;7.05;5.03;;;;;;;;;;6123766;23;20084;-86
2023/06/16 04:30:24;;;;;;;6.43;4.88;;;;;;;;;;6122267;23;20030;-86
2023/06/16 04:32:49;;;;;;;7.95;5.70;;;;;;;;;;6120165;23;20017;-86
2023/06/16 04:35:17;;;;;;;7.07;5.30;;;;;;;;;;6121340;23;20080;-86
2023/06/16 04:37:43;;;;;;;6.55;5.50;;;;;;;;;;6122009;23;20081;-86
2023/06/16 04:40:09;;;;;;;7.75;5.72;;;;;;;;;;6123027;23;20020;-87
2023/06/16 04:42:35;;;;;;;6.18;5.50;;;;;;;;;;6122835;23;20022;-88
2023/06/16 04:45:01;;;;;;;6.53;5.28;;;;;;;;;;6122445;23;20021;-87
2023/06/16 04:47:27;;;;;;;6.78;5.45;;;;;;;;;;6122252;23;20010;-85
2023/06/16 04:49:53;;;;;;;6.22;5.53;;;;;;;;;;6121028;23;20448;-91
2023/06/16 04:52:19;;;;;;;7.75;6.38;;;;;;;;;;6120518;23;20081;-91
2023/06/16 04:54:46;;;;;;;8.40;6.10;;;;;;;;;;6123276;23;20060;-91
2023/06/16 04:57:12;;;;;;;7.32;6.20;;;;;;;;;;6123217;23;20398;-92
2023/06/16 04:59:38;;;;;;;6.20;5.53;;;;;;;;;;6124234;23;20014;-93
2023/06/16 05:02:04;;;;;;;5.55;4.85;;;;;;;;;;6121861;23;20018;-92
2023/06/16 05:04:31;;;;;;;8.38;5.57;;;;;;;;;;6122491;23;20018;-93
2023/06/16 05:06:57;;;;;;;8.48;6.15;;;;;;;;;;6124347;23;20014;-94
2023/06/16 05:09:23;;;;;;;7.35;6.30;;;;;;;;;;6123985;23;20488;-92
2023/06/16 05:11:49;;;;;;;7.82;6.07;;;;;;;;;;6124310;23;20048;-91
2023/06/16 05:14:15;;;;;;;8.45;6.32;;;;;;;;;;6123146;23;20436;-91
2023/06/16 05:16:41;;;;;;;8.00;6.25;;;;;;;;;;6121470;23;20029;-91
2023/06/16 05:19:07;;;;;;;11.75;7.03;;;;;;;;;;6126773;23;20336;-94
2023/06/16 05:21:33;;;;;;;8.20;6.60;;;;;;;;;;6128049;23;20018;-95
2023/06/16 05:23:59;;;;;;;9.43;7.03;;;;;;;;;;6134181;23;20014;-94
2023/06/16 05:26:25;;;;;;;8.13;5.88;;;;;;;;;;6122148;23;20073;-95
2023/06/16 05:28:51;;;;;;;7.95;6.78;;;;;;;;;;6123783;23;20014;-95
2023/06/16 05:31:17;;;;;;;7.72;6.97;;;;;;;;;;6124328;23;20335;-93
2023/06/16 05:33:43;;;;;;;8.57;7.47;;;;;;;;;;6124101;23;20020;-95
2023/06/16 05:36:10;;;;;;;7.97;6.78;;;;;;;;;;6125454;23;20089;-95
2023/06/16 05:38:36;;;;;;;9.38;7.25;;;;;;;;;;6124383;23;20352;-94
2023/06/16 05:41:02;;;;;;;10.65;7.35;;;;;;;;;;6124073;23;20014;-93
2023/06/16 05:43:28;;;;;;;9.27;7.53;;;;;;;;;;6097988;23;20022;-89
2023/06/16 05:45:54;;;;;;;10.05;7.80;;;;;;;;;;6124915;23;20072;-95
2023/06/16 05:48:20;;;;;;;9.65;7.47;;;;;;;;;;6126800;23;20018;-93
2023/06/16 05:50:47;;;;;;;7.88;6.65;;;;;;;;;;6123960;23;20017;-93
2023/06/16 05:53:13;;;;;;;10.25;6.88;;;;;;;;;;6131342;23;20041;-96
2023/06/16 05:55:39;;;;;;;8.95;7.18;;;;;;;;;;6138165;23;20041;-96
2023/06/16 05:58:09;;;;;;;10.57;8.40;;;;;;;;;;6131313;23;20068;-95
2023/06/16 06:00:35;;;;;;;11.57;8.30;;;;;;;;;;6124188;23;20029;-92
2023/06/16 06:03:01;;;;;;;8.82;6.25;;;;;;;;;;6125132;23;20014;-95
2023/06/16 06:05:27;;;;;;;9.63;7.50;;;;;;;;;;6124313;23;20052;-94
2023/06/16 06:07:53;;;;;;;10.30;7.97;;;;;;;;;;6132664;23;20014;-93
2023/06/16 06:10:19;;;;;;;9.57;7.32;;;;;;;;;;6140596;23;20120;-96
2023/06/16 07:56:52;;;;;;;5.47;4.90;;;;;;;;;;6035250;23;20034;-89
2023/06/16 07:59:18;;;;;;;6.10;4.40;;;;;;;;;;6032899;23;20019;-86
2023/06/16 08:01:44;;;;;;;5.45;4.43;;;;;;;;;;6056062;23;20015;-87
2023/06/16 08:04:11;;;;;;;4.47;4.07;;;;;;;;;;6033552;23;20043;-85
2023/06/16 08:06:37;;;;;;;6.32;4.57;;;;;;;;;;6034557;23;20023;-84
2023/06/16 08:09:05;;;;;;;5.22;4.70;;;;;;;;;;6034950;23;20106;-86
2023/06/16 08:11:31;;;;;;;5.85;4.95;;;;;;;;;;6033357;23;20105;-84
2023/06/16 08:13:57;;;;;;;6.55;5.95;;;;;;;;;;6035506;23;20043;-85
2023/06/16 08:16:23;;;;;;;5.90;5.35;;;;;;;;;;6033756;23;20067;-84
2023/06/16 08:18:50;;;;;;;6.00;5.35;;;;;;;;;;6036076;23;20379;-90
2023/06/16 08:21:16;;;;;;;6.38;5.70;;;;;;;;;;6034318;23;20098;-85
2023/06/16 08:23:42;;;;;;;5.18;4.65;;;;;;;;;;6037362;23;20027;-88
2023/06/16 08:26:08;;;;;;;6.30;5.22;;;;;;;;;;6034133;23;20015;-87
2023/06/16 08:28:37;;;;;;;6.53;5.63;;;;;;;;;;6032430;23;20397;-85
2023/06/16 08:31:03;;;;;;;8.80;5.82;;;;;;;;;;6036458;23;20023;-85
2023/06/16 08:33:30;;;;;;;5.45;4.95;;;;;;;;;;6060679;23;20066;-87
2023/06/16 08:35:56;;;;;;;5.80;5.18;;;;;;;;;;6035033;23;20082;-85
2023/06/16 08:38:22;;;;;;;5.20;4.43;;;;;;;;;;6032698;23;20098;-84
2023/06/16 08:40:48;;;;;;;6.03;5.15;;;;;;;;;;6035365;23;20051;-84
2023/06/16 08:43:15;;;;;;;5.88;5.15;;;;;;;;;;6035305;23;20015;-85
2023/06/16 08:45:41;;;;;;;10.07;5.18;;;;;;;;;;6035751;23;20022;-84
2023/06/16 08:48:07;;;;;;;5.90;4.93;;;;;;;;;;6033798;23;20078;-85
2023/06/16 08:50:33;;;;;;;6.03;5.07;;;;;;;;;;6035463;23;20017;-85
2023/06/16 08:53:00;;;;;;;5.78;5.20;;;;;;;;;;6036724;23;20090;-84
2023/06/16 08:55:29;;;;;;;5.55;4.53;;;;;;;;;;6045536;23;20098;-84
2023/06/16 08:57:56;;;;;;;6.07;5.28;;;;;;;;;;6062817;23;20021;-90
2023/06/16 09:00:22;;;;;;;4.88;4.38;;;;;;;;;;6063015;23;20026;-92
2023/06/16 09:02:49;;;;;;;5.47;4.03;;;;;;;;;;6065480;23;20341;-91
2023/06/16 09:05:19;;;;;;;6.15;5.57;;;;;;;;;;6064667;23;20131;-89
2023/06/16 09:07:45;;;;;;;5.68;4.97;;;;;;;;;;6066865;23;20019;-93
2023/06/16 09:10:11;;;;;;;6.18;5.35;;;;;;;;;;6065374;23;20022;-90
2023/06/16 09:12:37;;;;;;;8.48;7.63;;;;;;;;;;6063175;23;20102;-90
2023/06/16 09:15:10;;;;;;;5.07;4.57;;;;;;;;;;6064534;23;20046;-96
2023/06/16 09:17:39;;;;;;;6.05;5.03;;;;;;;;;;6065229;23;20023;-90
2023/06/16 09:20:06;;;;;;;6.15;4.82;;;;;;;;;;6061333;23;20018;-89
2023/06/16 09:22:33;;;;;;;4.95;4.45;;;;;;;;;;6063173;23;20019;-94
2023/06/16 09:25:00;;;;;;;6.20;4.90;;;;;;;;;;6063242;23;20034;-92
2023/06/16 09:27:45;;;;;;;4.93;4.50;;;;;;;;;;6063998;23;20011;-91
2023/06/16 09:30:13;;;;;;;3.75;3.30;;;;;;;;;;6064842;23;20021;-91
2023/06/16 09:32:39;;;;;;;5.20;4.80;;;;;;;;;;6066089;23;20416;-93
2023/06/16 09:35:16;;;;;;;5.32;4.78;;;;;;;;;;6064187;23;20349;-85
2023/06/16 09:37:42;;;;;;;5.22;4.43;;;;;;;;;;6064290;23;20071;-87
2023/06/16 09:40:09;;;;;;;5.57;4.18;;;;;;;;;;6064786;23;20035;-90
2023/06/16 09:42:37;;;;;;;4.85;4.40;;;;;;;;;;6063369;23;20069;-87
2023/06/16 09:45:08;;;;;;;4.43;3.85;;;;;;;;;;6063621;23;20042;-91
2023/06/16 09:47:36;;;;;;;5.35;4.68;;;;;;;;;;6063340;23;20027;-87
2023/06/16 09:50:04;;;;;;;5.57;4.55;;;;;;;;;;6065285;23;20332;-88
2023/06/16 09:52:33;;;;;;;5.60;4.75;;;;;;;;;;6062913;23;20093;-91
2023/06/16 09:54:59;;;;;;;4.47;4.07;;;;;;;;;;6064103;23;20114;-91
2023/06/16 09:57:26;;;;;;;5.03;4.15;;;;;;;;;;6060322;23;20030;-87
2023/06/16 09:59:53;;;;;;;5.45;4.88;;;;;;;;;;6064671;23;20019;-85
2023/06/16 10:02:19;;;;;;;4.55;4.15;;;;;;;;;;6064044;23;20147;-85
2023/06/16 10:04:45;;;;;;;4.78;3.83;;;;;;;;;;6064039;23;20440;-86
2023/06/16 10:07:11;;;;;;;4.35;4.05;;;;;;;;;;6063854;23;20019;-83
2023/06/16 10:09:44;;;;;;;6.05;4.75;;;;;;;;;;6063501;23;20066;-84
2023/06/16 10:12:14;;;;;;;4.65;4.15;;;;;;;;;;6061630;23;20026;-83
2023/06/16 10:14:42;;;;;;;5.65;3.53;;;;;;;;;;6064335;23;20066;-83
2023/06/16 10:17:14;;;;;;;3.67;3.38;;;;;;;;;;6063100;23;20420;-84
2023/06/16 10:19:44;;;;;;;4.47;3.47;;;;;;;;;;6064085;23;20022;-84
2023/06/16 10:22:11;;;;;;;5.25;3.38;;;;;;;;;;6062152;23;20134;-82
2023/06/16 10:24:39;;;;;;;3.53;3.22;;;;;;;;;;6062864;23;20025;-83
2023/06/16 10:27:05;;;;;;;3.58;3.28;;;;;;;;;;6062629;23;20026;-85
2023/06/16 10:29:32;;;;;;;4.15;3.75;;;;;;;;;;6061201;23;20394;-84
2023/06/16 10:32:10;;;;;;;5.55;4.10;;;;;;;;;;6062442;23;20508;-84
2023/06/16 10:34:46;;;;;;;5.60;3.70;;;;;;;;;;6062480;23;20026;-84
2023/06/16 10:37:12;;;;;;;;;;;;;;;;;;6064371;23;20027;-86
2023/06/16 10:39:42;;;;;;;3.60;3.08;;;;;;;;;;6063973;23;19964;-82
2023/06/16 10:42:11;;;;;;;4.72;3.90;;;;;;;;;;6063275;23;20022;-84
2023/06/16 10:44:37;;;;;;;5.22;3.38;;;;;;;;;;6064385;23;20333;-84
2023/06/16 10:47:09;;;;;;;3.50;3.20;;;;;;;;;;6064055;23;20015;-84
2023/06/16 10:49:44;;;;;;;4.70;3.45;;;;;;;;;;6064729;23;20046;-83
2023/06/16 10:52:10;;;;;;;4.50;3.10;;;;;;;;;;6062181;23;20026;-83
2023/06/16 10:54:44;;;;;;;4.93;3.63;;;;;;;;;;6063182;23;20456;-86
2023/06/16 10:57:12;;;;;;;4.88;3.15;;;;;;;;;;6061029;23;20027;-84
2023/06/16 10:59:53;;;;;;;4.18;2.97;;;;;;;;;;6063123;23;20326;-84
2023/06/16 11:02:30;;;;;;;3.60;3.03;;;;;;;;;;6064094;23;20011;-89
2023/06/16 11:05:08;;;;;;;2.85;2.30;;;;;;;;;;6064420;23;20050;-84
2023/06/16 11:07:46;;;;;;;5.07;2.70;;;;;;;;;;6063387;23;20018;-90
2023/06/16 11:10:17;;;;;;;2.90;2.70;;;;;;;;;;6064142;23;20014;-85
2023/06/16 11:12:43;;;;;;;3.92;2.80;;;;;;;;;;6064898;23;20057;-87
2023/06/16 11:15:09;;;;;;;3.60;2.95;;;;;;;;;;6063281;23;20022;-89
2023/06/16 11:17:36;;;;;;;3.85;2.53;;;;;;;;;;6064696;23;20022;-88
2023/06/16 11:20:05;;;;;;;5.43;3.10;;;;;;;;;;6063818;23;20551;-83
2023/06/16 11:22:32;;;;;;;4.10;2.30;;;;;;;;;;6062726;23;20464;-84
2023/06/16 11:24:58;;;;;;;3.92;2.83;;;;;;;;;;6064318;23;20023;-92
2023/06/16 11:27:25;;;;;;;3.75;2.67;;;;;;;;;;6063814;23;20014;-89
2023/06/16 11:29:53;;;;;;;2.88;2.58;;;;;;;;;;6064165;23;20015;-86
2023/06/16 11:32:22;;;;;;;5.90;3.30;;;;;;;;;;6063454;23;20038;-86
2023/06/16 11:34:48;;;;;;;2.08;1.85;;;;;;;;;;6063534;23;20015;-84
2023/06/16 11:37:14;;;;;;;2.72;2.53;;;;;;;;;;6062710;23;20015;-89
2023/06/16 11:39:43;;;;;;;3.67;2.80;;;;;;;;;;6061776;23;20051;-88
2023/06/16 11:42:13;;;;;;;5.75;2.63;;;;;;;;;;6063608;23;20444;-87
2023/06/16 11:44:39;;;;;;;2.13;2.03;;;;;;;;;;6062496;23;20038;-90
2023/06/16 11:47:05;;;;;;;3.50;2.42;;;;;;;;;;6063565;23;20026;-85
2023/06/16 11:49:37;;;;;;;2.83;2.50;;;;;;;;;;6066129;23;20117;-86
2023/06/16 11:52:06;;;;;;;6.18;3.08;;;;;;;;;;6063913;23;20025;-89
2023/06/16 11:54:36;;;;;;;3.65;2.50;;;;;;;;;;6064864;23;20389;-87
2023/06/16 11:57:02;;;;;;;3.03;2.72;;;;;;;;;;6066079;23;20393;-87
2023/06/16 11:59:30;;;;;;;2.20;1.75;;;;;;;;;;6065556;23;20026;-87
2023/06/16 12:02:01;;;;;;;2.63;2.42;;;;;;;;;;6064788;23;20019;-84
2023/06/16 12:04:27;;;;;;;4.03;2.33;;;;;;;;;;6064985;23;20081;-92
2023/06/16 12:06:54;;;;;;;3.00;2.67;;;;;;;;;;6065233;23;20021;-89
2023/06/16 12:09:21;;;;;;;3.15;2.70;;;;;;;;;;6064747;23;20095;-87
2023/06/16 12:11:48;;;;;;;2.90;2.70;;;;;;;;;;6061781;23;20438;-90
2023/06/16 12:14:21;;;;;;;4.07;2.47;;;;;;;;;;6061655;23;20142;-93
2023/06/16 12:16:51;;;;;;;4.47;2.85;;;;;;;;;;6063056;23;20019;-93
2023/06/16 12:19:21;;;;;;;3.35;2.53;;;;;;;;;;6064178;23;20330;-93
2023/06/16 12:21:54;;;;;;;6.47;2.63;;;;;;;;;;6067054;23;20014;-94
2023/06/16 12:24:20;;;;;;;3.15;2.85;;;;;;;;;;6066561;23;20091;-89
2023/06/16 12:26:47;;;;;;;4.32;2.30;;;;;;;;;;6065165;23;20026;-91
2023/06/16 12:29:16;;;;;;;3.30;2.45;;;;;;;;;;6068342;23;20014;-87
2023/06/16 12:31:53;;;;;;;5.32;2.70;;;;;;;;;;6064349;23;20019;-90
2023/06/16 12:34:23;;;;;;;4.32;2.60;;;;;;;;;;6066649;23;20015;-94
2023/06/16 12:36:48;;;;;;;2.65;2.45;;;;;;;;;;6063555;23;20015;-90
2023/06/16 12:39:16;;;;;;;3.58;2.80;;;;;;;;;;6063973;23;20037;-91
2023/06/16 12:41:54;;;;;;;2.35;2.15;;;;;;;;;;6069949;23;20026;-95
2023/06/16 12:44:20;;;;;;;2.75;2.13;;;;;;;;;;6071374;23;20018;-90
2023/06/16 12:46:46;;;;;;;3.80;2.50;;;;;;;;;;6067634;23;20015;-91
2023/06/16 12:49:12;;;;;;;3.00;2.70;;;;;;;;;;6065308;23;20318;-91
2023/06/16 12:51:38;;;;;;;3.40;2.42;;;;;;;;;;6064083;23;20025;-96
2023/06/16 12:54:04;;;;;;;5.80;3.20;;;;;;;;;;6066656;23;20314;-90
2023/06/16 12:56:30;;;;;;;2.85;2.45;;;;;;;;;;6067355;23;20034;-87
2023/06/16 12:58:56;;;;;;;6.30;2.70;;;;;;;;;;6067165;23;20318;-91
2023/06/16 13:01:22;;;;;;;3.22;2.00;;;;;;;;;;6065167;23;20015;-95
2023/06/16 13:03:48;;;;;;;2.47;2.28;;;;;;;;;;6068489;23;20023;-89
2023/06/16 13:06:15;;;;;;;3.17;2.33;;;;;;;;;;6064181;23;20019;-88
2023/06/16 13:08:42;;;;;;;3.90;2.28;;;;;;;;;;6064197;23;20082;-87
2023/06/16 13:11:08;;;;;;;3.47;2.55;;;;;;;;;;6063990;23;20022;-86
2023/06/16 13:13:34;;;;;;;3.35;2.13;;;;;;;;;;6063538;23;20054;-90
2023/06/16 13:16:00;;;;;;;3.03;2.72;;;;;;;;;;6064182;23;20019;-88
2023/06/16 13:18:26;;;;;;;3.00;2.50;;;;;;;;;;6062399;23;20077;-82
2023/06/16 13:20:52;;;;;;;3.13;2.83;;;;;;;;;;6063908;23;20022;-83
2023/06/16 13:23:18;;;;;;;3.35;2.13;;;;;;;;;;6063909;23;20025;-88
2023/06/16 13:25:44;;;;;;;2.42;2.22;;;;;;;;;;6063585;23;20086;-84
2023/06/16 13:28:10;;;;;;;3.47;2.70;;;;;;;;;;6063360;23;20015;-84
2023/06/16 13:30:36;;;;;;;3.10;2.50;;;;;;;;;;6063344;23;20094;-85
2023/06/16 13:33:02;;;;;;;2.70;2.50;;;;;;;;;;6062328;23;20527;-87
2023/06/16 13:35:28;;;;;;;3.08;2.78;;;;;;;;;;6061635;23;20619;-84
2023/06/16 13:37:55;;;;;;;3.20;2.40;;;;;;;;;;6064072;23;20022;-88
2023/06/16 13:40:21;;;;;;;2.90;2.70;;;;;;;;;;6063754;23;20362;-82
2023/06/16 13:42:47;;;;;;;3.17;2.83;;;;;;;;;;6064555;23;20022;-85
2023/06/16 13:45:13;;;;;;;3.47;2.65;;;;;;;;;;6064715;23;20015;-83
2023/06/16 13:47:39;;;;;;;2.92;2.60;;;;;;;;;;6062018;23;20018;-83
2023/06/16 13:50:05;;;;;;;3.00;2.67;;;;;;;;;;6063834;23;20054;-86
2023/06/16 13:52:31;;;;;;;2.63;2.42;;;;;;;;;;6062696;23;20019;-86
2023/06/16 13:54:57;;;;;;;2.63;2.42;;;;;;;;;;6063603;23;20069;-86
2023/06/16 13:57:23;;;;;;;2.83;2.30;;;;;;;;;;6064616;23;20106;-85
2023/06/16 13:59:49;;;;;;;3.15;2.83;;;;;;;;;;6063362;23;20503;-86
2023/06/16 14:02:15;;;;;;;4.15;2.13;;;;;;;;;;6063046;23;20019;-84
2023/06/16 14:04:41;;;;;;;3.45;2.45;;;;;;;;;;6064364;23;20441;-87
2023/06/16 14:07:07;;;;;;;2.30;2.10;;;;;;;;;;6062873;23;20074;-87
2023/06/16 14:09:33;;;;;;;3.33;2.33;;;;;;;;;;6063925;23;20441;-84
2023/06/16 14:11:59;;;;;;;3.45;2.78;;;;;;;;;;6064658;23;20029;-86
2023/06/16 14:14:25;;;;;;;2.88;2.63;;;;;;;;;;6064271;23;20090;-85
2023/06/16 14:16:51;;;;;;;3.13;2.70;;;;;;;;;;6062361;23;20015;-84
2023/06/16 14:19:17;;;;;;;4.03;2.92;;;;;;;;;;6063730;23;20098;-90
2023/06/16 14:21:43;;;;;;;4.43;2.92;;;;;;;;;;6064449;23;20336;-85
2023/06/16 14:24:09;;;;;;;2.60;2.40;;;;;;;;;;6063551;23;20045;-86
2023/06/16 14:26:35;;;;;;;3.03;2.20;;;;;;;;;;6062147;23;20015;-87
2023/06/16 14:29:01;;;;;;;4.70;2.42;;;;;;;;;;6062646;23;20014;-85
2023/06/16 14:31:27;;;;;;;2.95;2.50;;;;;;;;;;6063247;23;20337;-90
2023/06/16 14:33:54;;;;;;;2.53;2.17;;;;;;;;;;6063325;23;20029;-89
2023/06/16 14:36:20;;;;;;;2.53;2.33;;;;;;;;;;6061791;23;20057;-87
2023/06/16 14:38:46;;;;;;;2.50;2.28;;;;;;;;;;6087728;23;20019;-89
2023/06/16 14:41:12;;;;;;;2.97;2.60;;;;;;;;;;6062933;23;20025;-89
2023/06/16 14:43:38;;;;;;;4.57;2.78;;;;;;;;;;6064956;23;20034;-89
2023/06/16 14:46:04;;;;;;;3.05;2.65;;;;;;;;;;6061874;23;20015;-86
2023/06/16 14:48:30;;;;;;;2.70;2.50;;;;;;;;;;6062461;23;20170;-88
2023/06/16 14:50:57;;;;;;;4.93;2.83;;;;;;;;;;6064384;23;20022;-92
2023/06/16 14:53:23;;;;;;;3.33;3.00;;;;;;;;;;6069714;23;20019;-94
2023/06/16 14:55:49;;;;;;;2.60;2.40;;;;;;;;;;6068466;23;20046;-89
2023/06/16 14:58:15;;;;;;;2.92;2.72;;;;;;;;;;6068223;23;20556;-91
2023/06/16 15:00:41;;;;;;;2.92;2.13;;;;;;;;;;6065589;23;20021;-91
2023/06/16 15:03:07;;;;;;;3.88;2.50;;;;;;;;;;6068335;23;20455;-93
2023/06/16 15:05:34;;;;;;;3.67;2.60;;;;;;;;;;6067687;23;20015;-94
2023/06/16 15:08:00;;;;;;;3.33;2.72;;;;;;;;;;6068613;23;20022;-89
2023/06/16 15:10:26;;;;;;;3.47;2.67;;;;;;;;;;6066143;23;20063;-92
2023/06/16 15:12:51;;;;;;;3.20;2.90;;;;;;;;;;6072350;23;20456;-95
2023/06/16 15:15:17;;;;;;;3.95;2.40;;;;;;;;;;6065705;23;20021;-93
2023/06/16 15:17:43;;;;;;;3.45;2.20;;;;;;;;;;6064358;23;20026;-90
2023/06/16 15:20:10;;;;;;;4.82;2.83;;;;;;;;;;6063784;23;20015;-91
2023/06/16 15:22:36;;;;;;;2.80;2.60;;;;;;;;;;6065892;23;20051;-92
2023/06/16 15:25:02;;;;;;;2.63;2.42;;;;;;;;;;6064834;23;20015;-93
2023/06/16 15:27:28;;;;;;;3.15;2.80;;;;;;;;;;6065509;23;20023;-93
2023/06/16 15:29:54;;;;;;;3.42;2.47;;;;;;;;;;6066211;23;20010;-95
2023/06/16 15:32:20;;;;;;;2.42;2.22;;;;;;;;;;6066955;23;20019;-93
2023/06/16 15:34:46;;;;;;;2.80;2.50;;;;;;;;;;6065147;23;20031;-87
2023/06/16 15:37:12;;;;;;;2.45;2.25;;;;;;;;;;6061309;23;20029;-90
2023/06/16 15:39:38;;;;;;;2.47;2.20;;;;;;;;;;6063535;23;20015;-87
2023/06/16 15:42:04;;;;;;;4.22;2.50;;;;;;;;;;6062686;23;20334;-88
2023/06/16 15:44:30;;;;;;;3.00;2.30;;;;;;;;;;6062736;23;20015;-95
2023/06/16 15:46:56;;;;;;;4.50;2.67;;;;;;;;;;6062890;23;20130;-85
2023/06/16 15:49:22;;;;;;;3.38;2.63;;;;;;;;;;6061779;23;20038;-91
2023/06/16 15:51:48;;;;;;;2.72;2.33;;;;;;;;;;6086375;23;20022;-90
2023/06/16 15:54:14;;;;;;;2.65;2.22;;;;;;;;;;6087054;23;20018;-88
2023/06/16 15:56:40;;;;;;;2.75;2.17;;;;;;;;;;6066079;23;20041;-87
2023/06/16 15:59:08;;;;;;;3.20;2.90;;;;;;;;;;6066378;23;20038;-95
2023/06/16 16:01:36;;;;;;;2.63;2.42;;;;;;;;;;6065365;23;20015;-88
2023/06/16 16:04:02;;;;;;;4.18;2.25;;;;;;;;;;6070049;23;20015;-90
2023/06/16 16:06:28;;;;;;;2.63;2.42;;;;;;;;;;6068363;23;20019;-92
2023/06/16 16:08:54;;;;;;;2.78;2.40;;;;;;;;;;6070327;23;20097;-87
2023/06/16 16:11:20;;;;;;;2.95;2.40;;;;;;;;;;6062400;23;20018;-92
2023/06/16 16:13:46;;;;;;;4.22;2.75;;;;;;;;;;6064904;23;20030;-90
2023/06/16 16:16:12;;;;;;;3.15;2.65;;;;;;;;;;6061856;23;20018;-92
2023/06/16 16:18:38;;;;;;;2.30;2.10;;;;;;;;;;6062842;23;20029;-96
2023/06/16 16:21:04;;;;;;;3.35;2.47;;;;;;;;;;6062821;23;20015;-94
2023/06/16 16:23:30;;;;;;;4.35;3.13;;;;;;;;;;6063495;23;20011;-90
2023/06/16 16:25:56;;;;;;;2.80;2.25;;;;;;;;;;6063431;23;20023;-93